createdAt,value
2022-11-15T00:00:57.763Z,11.33
2022-11-15T00:03:26.479Z,11.15
2022-11-15T00:05:53.606Z,11.44
2022-11-15T00:08:20.541Z,11.10
2022-11-15T00:11:01.693Z,11.38
2022-11-15T00:13:28.773Z,11.11
2022-11-15T00:15:59.312Z,11.44
2022-11-15T00:18:26.584Z,11.49
2022-11-15T00:20:53.310Z,11.48
2022-11-15T00:23:20.404Z,11.50
2022-11-15T00:25:47.107Z,11.32
2022-11-15T00:28:13.968Z,11.24
2022-11-15T00:30:40.802Z,11.26
2022-11-15T00:33:09.057Z,11.36
2022-11-15T00:35:36.117Z,11.14
2022-11-15T00:38:03.114Z,11.36
2022-11-15T00:40:29.917Z,11.65
2022-11-15T00:42:56.789Z,11.68
2022-11-15T00:45:24.196Z,11.62
2022-11-15T00:47:51.361Z,11.54
2022-11-15T00:50:18.696Z,11.50
2022-11-15T00:52:45.755Z,11.67
2022-11-15T00:55:17.178Z,11.86
2022-11-15T00:57:44.664Z,11.54
2022-11-15T01:00:12.716Z,11.69
2022-11-15T01:02:39.707Z,11.39
2022-11-15T01:05:07.050Z,11.73
2022-11-15T01:07:34.043Z,11.80
2022-11-15T01:10:00.728Z,11.75
2022-11-15T01:12:27.722Z,11.59
2022-11-15T01:14:54.355Z,11.91
2022-11-15T01:17:21.042Z,11.53
2022-11-15T01:19:47.731Z,11.76
2022-11-15T01:22:14.568Z,11.75
2022-11-15T01:24:41.246Z,11.79
2022-11-15T01:27:08.417Z,11.72
2022-11-15T01:29:35.150Z,11.86
2022-11-15T01:32:02.064Z,11.85
2022-11-15T01:34:28.738Z,11.89
2022-11-15T01:36:55.517Z,11.82
2022-11-15T01:39:22.149Z,11.70
2022-11-15T01:41:48.922Z,11.84
2022-11-15T01:44:37.220Z,11.98
2022-11-15T01:47:13.226Z,11.70
2022-11-15T01:49:51.551Z,11.98
2022-11-15T01:52:22.028Z,11.98
2022-11-15T01:54:54.936Z,11.93
2022-11-15T01:57:21.911Z,11.93
2022-11-15T01:59:48.987Z,11.45
2022-11-15T02:02:16.191Z,11.53
2022-11-15T02:04:47.724Z,11.54
2022-11-15T02:07:18.666Z,11.42
2022-11-15T02:09:46.941Z,11.83
2022-11-15T02:12:19.907Z,11.92
2022-11-15T02:14:53.195Z,11.62
2022-11-15T02:17:49.016Z,11.85
2022-11-15T02:20:49.305Z,11.96
2022-11-15T02:23:34.897Z,11.76
2022-11-15T02:26:25.936Z,11.96
2022-11-15T02:29:09.898Z,11.93
2022-11-15T02:31:55.185Z,11.89
2022-11-15T02:34:41.496Z,11.87
2022-11-15T02:37:17.146Z,12.01
2022-11-15T02:39:58.944Z,11.55
2022-11-15T02:42:48.781Z,11.82
2022-11-15T02:45:23.387Z,11.67
2022-11-15T02:47:55.165Z,11.66
2022-11-15T02:50:26.204Z,11.70
2022-11-15T02:52:53.211Z,11.76
2022-11-15T02:55:32.519Z,11.49
2022-11-15T02:58:33.862Z,11.93
2022-11-15T03:01:03.856Z,11.71
2022-11-15T03:03:46.380Z,11.76
2022-11-15T03:06:25.196Z,11.79
2022-11-15T03:09:27.351Z,11.74
2022-11-15T03:12:01.141Z,11.44
2022-11-15T03:14:40.464Z,11.53
2022-11-15T03:17:19.423Z,11.57
2022-11-15T03:19:52.449Z,11.45
2022-11-15T03:22:23.166Z,11.62
2022-11-15T03:24:55.648Z,11.73
2022-11-15T03:27:28.198Z,11.74
2022-11-15T03:30:00.873Z,11.57
2022-11-15T03:32:31.599Z,11.72
2022-11-15T03:35:04.473Z,11.65
2022-11-15T03:38:03.709Z,11.69
2022-11-15T03:40:47.802Z,11.60
2022-11-15T03:43:40.988Z,11.76
2022-11-15T03:46:33.854Z,11.83
2022-11-15T03:49:18.905Z,11.54
2022-11-15T03:51:45.718Z,11.52
2022-11-15T03:54:14.794Z,11.56
2022-11-15T03:56:41.639Z,11.27
2022-11-15T03:59:08.328Z,11.18
2022-11-15T04:01:35.174Z,11.46
2022-11-15T04:04:02.243Z,11.33
2022-11-15T04:06:29.052Z,11.25
2022-11-15T04:08:55.760Z,11.37
2022-11-15T04:11:22.717Z,11.34
2022-11-15T04:13:49.393Z,11.27
2022-11-15T04:16:16.116Z,11.35
2022-11-15T04:18:43.127Z,11.42
2022-11-15T04:21:28.758Z,11.28
2022-11-15T04:24:13.545Z,11.21
2022-11-15T04:26:40.210Z,11.17
2022-11-15T04:29:25.366Z,11.20
2022-11-15T04:31:52.043Z,11.13
2022-11-15T04:34:19.093Z,11.19
2022-11-15T04:37:04.024Z,11.15
2022-11-15T04:39:30.699Z,11.06
2022-11-15T04:41:57.544Z,11.03
2022-11-15T04:44:24.273Z,11.33
2022-11-15T04:46:51.140Z,11.21
2022-11-15T04:49:17.854Z,11.08
2022-11-15T04:51:44.965Z,11.21
2022-11-15T04:54:11.605Z,11.14
2022-11-15T04:56:38.228Z,11.11
2022-11-15T04:59:04.852Z,10.94
2022-11-15T05:01:31.646Z,11.14
2022-11-15T05:04:16.818Z,10.93
2022-11-15T05:06:43.748Z,10.85
2022-11-15T05:09:10.624Z,11.19
2022-11-15T05:11:37.422Z,11.28
2022-11-15T05:14:04.120Z,11.19
2022-11-15T05:16:31.305Z,11.16
2022-11-15T05:18:58.033Z,11.29
2022-11-15T05:21:24.889Z,11.40
2022-11-15T05:23:51.910Z,11.32
2022-11-15T05:26:19.881Z,11.32
2022-11-15T05:28:46.931Z,11.38
2022-11-15T05:31:16.425Z,11.34
2022-11-15T05:33:45.345Z,11.46
2022-11-15T05:36:36.659Z,11.57
2022-11-15T05:39:05.757Z,11.70
2022-11-15T05:41:37.243Z,11.39
2022-11-15T05:44:08.725Z,11.30
2022-11-15T05:46:38.027Z,11.69
2022-11-15T05:49:08.433Z,11.44
2022-11-15T05:51:35.377Z,11.40
2022-11-15T05:54:03.053Z,11.53
2022-11-15T05:56:30.466Z,11.49
2022-11-15T05:58:59.985Z,11.65
2022-11-15T06:01:27.983Z,11.55
2022-11-15T06:03:54.933Z,11.52
2022-11-15T06:06:21.787Z,11.53
2022-11-15T06:08:49.050Z,11.49
2022-11-15T06:11:15.886Z,11.57
2022-11-15T06:13:42.802Z,11.59
2022-11-15T06:16:09.713Z,11.49
2022-11-15T06:18:37.804Z,11.57
2022-11-15T06:21:05.297Z,11.77
2022-11-15T06:23:35.981Z,11.72
2022-11-15T06:26:03.851Z,11.74
2022-11-15T06:28:32.408Z,11.82
2022-11-15T06:31:12.230Z,11.86
2022-11-15T06:33:43.250Z,11.74
2022-11-15T06:36:17.722Z,11.69
2022-11-15T06:38:46.025Z,11.75
2022-11-15T06:41:14.567Z,11.66
2022-11-15T06:43:42.164Z,11.67
2022-11-15T06:46:09.644Z,11.76
2022-11-15T06:48:37.420Z,11.88
2022-11-15T06:51:05.309Z,11.59
2022-11-15T06:53:33.397Z,11.74
2022-11-15T06:56:06.057Z,11.78
2022-11-15T06:58:32.877Z,11.75
2022-11-15T07:01:04.632Z,11.85
2022-11-15T07:03:31.771Z,12.08
2022-11-15T07:06:04.168Z,11.79
2022-11-15T07:08:34.042Z,12.06
2022-11-15T07:11:03.070Z,11.88
2022-11-15T07:13:35.026Z,11.68
2022-11-15T07:16:07.189Z,11.90
2022-11-15T07:18:41.398Z,11.89
2022-11-15T07:21:10.754Z,11.96
2022-11-15T07:23:39.247Z,12.01
2022-11-15T07:26:06.443Z,11.90
2022-11-15T07:28:33.289Z,12.01
2022-11-15T07:31:07.735Z,11.69
2022-11-15T07:33:35.467Z,11.77
2022-11-15T07:36:07.746Z,12.01
2022-11-15T07:38:42.156Z,11.87
2022-11-15T07:41:09.990Z,11.97
2022-11-15T07:43:36.993Z,11.53
2022-11-15T07:46:10.504Z,11.80
2022-11-15T07:48:45.861Z,11.77
2022-11-15T07:51:15.405Z,11.83
2022-11-15T07:53:43.506Z,11.48
2022-11-15T07:56:11.070Z,11.87
2022-11-15T07:58:37.740Z,11.44
2022-11-15T08:01:09.888Z,11.46
2022-11-15T08:03:37.200Z,11.39
2022-11-15T08:06:04.161Z,11.77
2022-11-15T08:08:30.943Z,11.91
2022-11-15T08:11:00.862Z,11.62
2022-11-15T08:13:27.731Z,11.86
2022-11-15T08:16:03.419Z,11.73
2022-11-15T08:18:30.259Z,11.85
2022-11-15T08:21:01.035Z,11.34
2022-11-15T08:23:27.863Z,11.94
2022-11-15T08:26:00.625Z,11.57
2022-11-15T08:28:27.358Z,11.67
2022-11-15T08:30:54.297Z,11.57
2022-11-15T08:33:21.043Z,11.67
2022-11-15T08:35:48.183Z,11.43
2022-11-15T08:38:14.907Z,11.56
2022-11-15T08:40:41.635Z,11.65
2022-11-15T08:43:09.037Z,11.50
2022-11-15T08:45:36.506Z,11.68
2022-11-15T08:48:04.420Z,11.48
2022-11-15T08:50:31.928Z,11.58
2022-11-15T08:52:59.198Z,11.34
2022-11-15T08:55:26.042Z,11.33
2022-11-15T08:57:52.821Z,11.28
2022-11-15T09:00:21.103Z,11.14
2022-11-15T09:02:48.263Z,10.95
2022-11-15T09:05:16.760Z,10.85
2022-11-15T09:07:44.061Z,10.81
2022-11-15T09:10:11.231Z,11.23
2022-11-15T09:12:38.433Z,11.19
2022-11-15T09:15:06.829Z,11.11
2022-11-15T09:17:33.537Z,11.17
2022-11-15T09:20:00.514Z,11.01
2022-11-15T09:22:27.460Z,10.94
2022-11-15T09:24:54.146Z,11.24
2022-11-15T09:27:20.879Z,11.29
2022-11-15T09:29:47.907Z,11.26
2022-11-15T09:32:14.698Z,11.06
2022-11-15T09:34:41.433Z,11.42
2022-11-15T09:37:08.146Z,11.31
2022-11-15T09:39:34.978Z,11.31
2022-11-15T09:42:23.465Z,11.49
2022-11-15T09:45:08.687Z,11.65
2022-11-15T09:47:56.699Z,11.66
2022-11-15T09:50:39.929Z,11.39
2022-11-15T09:53:14.048Z,11.78
2022-11-15T09:55:57.817Z,11.63
2022-11-15T09:58:43.211Z,11.86
2022-11-15T10:01:21.103Z,11.20
2022-11-15T10:03:48.025Z,11.49
2022-11-15T10:06:26.254Z,11.40
2022-11-15T10:08:56.175Z,11.50
2022-11-15T10:11:38.263Z,11.32
2022-11-15T10:14:19.408Z,11.23
2022-11-15T10:16:58.173Z,11.77
2022-11-15T10:19:53.545Z,11.71
2022-11-15T10:22:36.613Z,11.79
2022-11-15T10:25:09.654Z,11.86
2022-11-15T10:27:36.678Z,11.57
2022-11-15T10:30:05.689Z,11.78
2022-11-15T10:32:37.706Z,11.52
2022-11-15T10:35:23.756Z,11.61
2022-11-15T10:37:50.708Z,11.37
2022-11-15T10:40:24.147Z,11.66
2022-11-15T10:43:13.633Z,11.46
2022-11-15T10:45:40.598Z,11.47
2022-11-15T10:48:13.522Z,11.67
2022-11-15T10:50:42.631Z,11.32
2022-11-15T10:53:32.948Z,11.87
2022-11-15T10:56:14.114Z,11.47
2022-11-15T10:58:52.774Z,11.43
2022-11-15T11:01:23.686Z,11.54
2022-11-15T11:04:05.646Z,11.68
2022-11-15T11:06:57.079Z,11.47
2022-11-15T11:09:34.471Z,11.72
2022-11-15T11:12:02.560Z,11.58
2022-11-15T11:14:34.775Z,11.48
2022-11-15T11:17:37.448Z,11.68
2022-11-15T11:20:16.579Z,11.86
2022-11-15T11:23:18.331Z,11.91
2022-11-15T11:25:49.120Z,11.88
2022-11-15T11:31:30.796Z,11.62
2022-11-15T11:34:29.394Z,11.59
2022-11-15T11:37:13.252Z,11.83
2022-11-15T11:40:07.493Z,11.93
2022-11-15T11:43:00.017Z,12.02
2022-11-15T11:46:02.819Z,11.80
2022-11-15T11:48:49.711Z,12.00
2022-11-15T11:51:33.938Z,11.60
2022-11-15T11:54:25.409Z,11.40
2022-11-15T11:56:54.445Z,11.46
2022-11-15T11:59:40.409Z,11.76
2022-11-15T12:02:21.408Z,11.77
2022-11-15T12:04:54.185Z,11.60
2022-11-15T12:07:32.335Z,12.05
2022-11-15T12:10:25.541Z,11.91
2022-11-15T12:12:57.069Z,11.88
2022-11-15T12:15:28.481Z,11.92
2022-11-15T12:17:58.333Z,12.31
2022-11-15T12:20:28.213Z,12.57
2022-11-15T12:22:58.665Z,12.05
2022-11-15T12:25:52.387Z,12.38
2022-11-15T12:28:23.739Z,12.44
2022-11-15T12:31:04.649Z,12.23
2022-11-15T12:33:39.531Z,12.23
2022-11-15T12:36:32.870Z,11.87
2022-11-15T12:39:01.308Z,12.10
2022-11-15T12:41:30.515Z,11.96
2022-11-15T12:44:00.173Z,11.95
2022-11-15T12:46:30.112Z,12.15
2022-11-15T12:49:08.720Z,11.98
2022-11-15T12:51:44.960Z,12.19
2022-11-15T12:58:30.628Z,11.70
2022-11-15T13:00:57.796Z,11.40
2022-11-15T13:03:26.486Z,11.62
2022-11-15T13:05:58.568Z,11.81
2022-11-15T13:08:39.647Z,11.51
2022-11-15T13:11:47.803Z,11.92
2022-11-15T13:14:49.205Z,11.91
2022-11-15T13:17:36.990Z,11.51
2022-11-15T13:20:12.515Z,12.06
2022-11-15T13:22:55.581Z,12.07
2022-11-15T13:25:54.194Z,12.15
2022-11-15T13:28:30.933Z,12.25
2022-11-15T13:31:01.195Z,12.20
2022-11-15T13:33:37.075Z,12.07
2022-11-15T13:36:22.717Z,12.06
2022-11-15T13:39:28.970Z,12.20
2022-11-15T13:41:55.686Z,11.78
2022-11-15T13:44:34.724Z,11.89
2022-11-15T13:47:07.487Z,12.06
2022-11-15T13:49:35.575Z,12.18
2022-11-15T13:52:06.166Z,12.15
2022-11-15T13:54:45.404Z,12.31
2022-11-15T13:57:32.124Z,12.20
2022-11-15T14:00:03.283Z,12.13
2022-11-15T14:02:33.796Z,12.00
2022-11-15T14:05:00.381Z,12.03
2022-11-15T14:07:29.877Z,11.93
2022-11-15T14:09:56.959Z,12.19
2022-11-15T14:12:32.379Z,11.96
2022-11-15T14:15:01.478Z,12.09
2022-11-15T14:17:30.920Z,11.83
2022-11-15T14:20:00.996Z,11.78
2022-11-15T14:22:29.511Z,11.90
2022-11-15T14:25:17.559Z,11.74
2022-11-15T14:28:05.434Z,11.48
2022-11-15T14:30:33.589Z,11.77
2022-11-15T14:33:00.349Z,11.82
2022-11-15T14:35:27.519Z,11.65
2022-11-15T14:37:54.293Z,11.52
2022-11-15T14:40:23.554Z,11.72
2022-11-15T14:42:51.380Z,11.44
2022-11-15T14:45:21.141Z,11.50
2022-11-15T14:47:47.904Z,11.36
2022-11-15T14:50:20.857Z,11.54
2022-11-15T14:52:49.176Z,11.44
2022-11-15T14:55:22.865Z,11.64
2022-11-15T14:57:49.871Z,11.31
2022-11-15T15:00:18.122Z,11.71
2022-11-15T15:02:46.809Z,11.52
2022-11-15T15:05:22.461Z,11.55
2022-11-15T15:07:49.827Z,11.67
2022-11-15T15:10:39.519Z,11.63
2022-11-15T15:13:06.452Z,11.31
2022-11-15T15:15:38.409Z,11.49
2022-11-15T15:18:05.999Z,11.39
2022-11-15T15:20:33.721Z,11.35
2022-11-15T15:23:00.414Z,11.01
2022-11-15T15:25:33.894Z,11.23
2022-11-15T15:28:01.508Z,11.30
2022-11-15T15:30:30.028Z,11.21
2022-11-15T15:32:57.350Z,11.30
2022-11-15T15:35:32.955Z,11.49
2022-11-15T15:37:59.969Z,11.15
2022-11-15T15:40:29.409Z,11.47
2022-11-15T15:42:56.193Z,11.16
2022-11-15T15:45:23.267Z,11.29
2022-11-15T15:47:53.389Z,11.21
2022-11-15T15:50:33.036Z,11.40
2022-11-15T15:53:02.461Z,11.49
2022-11-15T15:55:29.845Z,11.50
2022-11-15T15:57:56.658Z,11.54
2022-11-15T16:00:27.020Z,11.47
2022-11-15T16:02:55.367Z,11.33
2022-11-15T16:05:23.690Z,11.32
2022-11-15T16:07:50.437Z,11.53
2022-11-15T16:10:22.444Z,11.50
2022-11-15T16:12:49.789Z,11.38
2022-11-15T16:15:16.770Z,11.37
2022-11-15T16:17:58.357Z,11.64
2022-11-15T16:20:51.115Z,11.76
2022-11-15T16:23:21.107Z,11.71
2022-11-15T16:25:54.008Z,11.78
2022-11-15T16:28:33.139Z,11.63
2022-11-15T16:31:10.690Z,11.76
2022-11-15T16:33:37.844Z,11.70
2022-11-15T16:36:23.428Z,11.52
2022-11-15T16:38:54.336Z,11.38
2022-11-15T16:41:21.096Z,11.44
2022-11-15T16:43:51.140Z,11.59
2022-11-15T16:46:23.265Z,11.76
2022-11-15T16:48:50.644Z,11.58
2022-11-15T16:51:17.670Z,11.45
2022-11-15T16:53:44.768Z,11.58
2022-11-15T16:56:23.105Z,11.56
2022-11-15T16:58:49.810Z,11.33
2022-11-15T17:01:26.308Z,11.47
2022-11-15T17:03:53.696Z,11.81
2022-11-15T17:06:21.363Z,11.44
2022-11-15T17:08:48.726Z,11.72
2022-11-15T17:11:19.621Z,11.73
2022-11-15T17:13:47.279Z,11.35
2022-11-15T17:16:15.909Z,11.65
2022-11-15T17:18:46.076Z,11.72
2022-11-15T17:21:18.441Z,11.25
2022-11-15T17:23:45.672Z,11.69
2022-11-15T17:26:31.446Z,11.72
2022-11-15T17:29:01.632Z,11.82
2022-11-15T17:31:30.905Z,11.53
2022-11-15T17:33:57.653Z,11.85
2022-11-15T17:36:24.465Z,11.65
2022-11-15T17:38:58.023Z,11.58
2022-11-15T17:41:26.662Z,11.71
2022-11-15T17:43:58.168Z,11.64
2022-11-15T17:46:24.956Z,11.37
2022-11-15T17:48:51.635Z,11.63
2022-11-15T17:51:19.236Z,11.94
2022-11-15T17:53:47.484Z,11.75
2022-11-15T17:56:16.676Z,11.76
2022-11-15T17:58:51.713Z,11.67
2022-11-15T18:01:23.289Z,11.76
2022-11-15T18:03:50.442Z,11.43
2022-11-15T18:06:18.562Z,11.82
2022-11-15T18:08:49.581Z,11.47
2022-11-15T18:11:21.991Z,11.80
2022-11-15T18:13:52.550Z,12.01
2022-11-15T18:16:22.518Z,11.73
2022-11-15T18:18:49.226Z,11.74
2022-11-15T18:21:21.954Z,11.93
2022-11-15T18:23:52.713Z,12.17
2022-11-15T18:26:23.072Z,12.23
2022-11-15T18:28:54.046Z,11.79
2022-11-15T18:31:21.709Z,12.10
2022-11-15T18:33:49.701Z,12.05
2022-11-15T18:36:20.435Z,12.06
2022-11-15T18:38:47.388Z,12.25
2022-11-15T18:41:18.102Z,12.28
2022-11-15T18:43:45.132Z,12.19
2022-11-15T18:46:15.010Z,12.07
2022-11-15T18:48:43.287Z,12.24
2022-11-15T18:51:15.029Z,12.30
2022-11-15T18:53:45.134Z,12.22
2022-11-15T18:56:15.632Z,12.09
2022-11-15T18:58:44.986Z,12.17
2022-11-15T19:01:17.278Z,12.42
2022-11-15T19:03:46.006Z,12.47
2022-11-15T19:06:24.725Z,12.40
2022-11-15T19:08:54.698Z,12.25
2022-11-15T19:11:31.121Z,12.48
2022-11-15T19:13:59.691Z,12.28
2022-11-15T19:16:28.284Z,12.31
2022-11-15T19:18:56.876Z,12.00
2022-11-15T19:21:25.013Z,12.19
2022-11-15T19:23:54.926Z,12.27
2022-11-15T19:26:23.255Z,12.37
2022-11-15T19:29:01.269Z,12.42
2022-11-15T19:31:29.944Z,12.10
2022-11-15T19:33:59.694Z,12.53
2022-11-15T19:36:32.661Z,12.34
2022-11-15T19:39:02.148Z,12.53
2022-11-15T19:41:28.822Z,12.33
2022-11-15T19:43:55.799Z,12.22
2022-11-15T19:46:23.739Z,12.26
2022-11-15T19:48:51.719Z,12.17
2022-11-15T19:51:23.919Z,12.43
2022-11-15T19:53:53.835Z,12.15
2022-11-15T19:56:22.049Z,12.24
2022-11-15T19:58:56.485Z,12.30
2022-11-15T20:01:25.591Z,11.79
2022-11-15T20:03:54.811Z,12.14
2022-11-15T20:06:27.506Z,12.38
2022-11-15T20:08:54.684Z,12.28
2022-11-15T20:11:21.530Z,12.26
2022-11-15T20:13:48.774Z,12.31
2022-11-15T20:16:18.585Z,12.38
2022-11-15T20:18:45.829Z,12.38
2022-11-15T20:21:13.933Z,12.23
2022-11-15T20:23:41.762Z,12.37
2022-11-15T20:26:09.903Z,12.39
2022-11-15T20:28:38.266Z,12.39
2022-11-15T20:31:06.094Z,12.33
2022-11-15T20:33:33.053Z,12.25
2022-11-15T20:36:04.251Z,12.18
2022-11-15T20:38:30.984Z,12.34
2022-11-15T20:41:00.340Z,12.38
2022-11-15T20:43:27.860Z,12.28
2022-11-15T20:45:54.797Z,12.36
2022-11-15T20:48:22.021Z,12.04
2022-11-15T20:50:48.873Z,12.26
2022-11-15T20:53:18.782Z,12.37
2022-11-15T20:55:48.633Z,12.28
2022-11-15T20:58:17.129Z,12.43
2022-11-15T21:00:45.689Z,12.39
2022-11-15T21:03:13.722Z,12.49
2022-11-15T21:05:42.992Z,12.40
2022-11-15T21:08:10.881Z,12.45
2022-11-15T21:10:56.489Z,12.53
2022-11-15T21:13:23.190Z,12.58
2022-11-15T21:15:49.890Z,12.66
2022-11-15T21:18:16.777Z,12.67
2022-11-15T21:20:43.454Z,12.63
2022-11-15T21:23:10.805Z,12.57
2022-11-15T21:25:38.015Z,12.62
2022-11-15T21:28:05.151Z,12.56
2022-11-15T21:30:31.896Z,12.71
2022-11-15T21:32:58.628Z,12.63
2022-11-15T21:35:25.509Z,12.61
2022-11-15T21:37:56.691Z,12.56
2022-11-15T21:40:24.864Z,12.80
2022-11-15T21:42:51.595Z,12.54
2022-11-15T21:45:18.215Z,12.86
2022-11-15T21:47:46.573Z,12.51
2022-11-15T21:50:14.156Z,12.54
2022-11-15T21:52:41.203Z,12.67
2022-11-15T21:55:09.017Z,12.67
2022-11-15T21:57:35.645Z,12.69
2022-11-15T22:00:21.018Z,12.72
2022-11-15T22:02:47.640Z,12.53
2022-11-15T22:05:14.373Z,12.59
2022-11-15T22:07:41.021Z,12.69
2022-11-15T22:10:08.109Z,12.63
2022-11-15T22:12:34.734Z,12.68
2022-11-15T22:15:01.593Z,12.74
2022-11-15T22:17:48.285Z,12.67
2022-11-15T22:20:45.534Z,12.64
2022-11-15T22:23:02.928Z,12.73
2022-11-15T22:25:29.839Z,12.70
2022-11-15T22:27:56.534Z,12.59
2022-11-15T22:30:24.452Z,12.68
2022-11-15T22:32:51.494Z,12.67
2022-11-15T22:35:18.218Z,12.45
2022-11-15T22:37:44.877Z,12.62
2022-11-15T22:40:11.740Z,12.71
2022-11-15T22:42:38.388Z,12.64
2022-11-15T22:45:05.522Z,12.76
2022-11-15T22:47:32.269Z,12.68
2022-11-15T22:49:58.949Z,12.67
2022-11-15T22:52:25.726Z,12.69
2022-11-15T22:54:52.522Z,12.71
2022-11-15T22:57:19.124Z,12.59
2022-11-15T22:59:46.046Z,12.38
2022-11-15T23:02:13.031Z,12.51
2022-11-15T23:04:39.816Z,12.56
2022-11-15T23:07:06.614Z,12.44
2022-11-15T23:09:33.305Z,12.52
2022-11-15T23:12:18.770Z,12.50
2022-11-15T23:14:45.513Z,12.41
2022-11-15T23:17:12.385Z,12.40
2022-11-15T23:19:39.334Z,12.49
2022-11-15T23:22:24.542Z,12.51
2022-11-15T23:24:52.697Z,12.50
2022-11-15T23:27:20.789Z,12.45
2022-11-15T23:30:06.405Z,12.44
2022-11-15T23:32:52.270Z,12.38
2022-11-15T23:35:19.169Z,12.48
2022-11-15T23:37:46.118Z,12.48
2022-11-15T23:40:13.293Z,12.46
2022-11-15T23:42:40.187Z,12.44
2022-11-15T23:45:07.176Z,12.42
2022-11-15T23:47:34.130Z,12.33
2022-11-15T23:50:01.003Z,12.31
2022-11-15T23:52:27.973Z,12.44
2022-11-15T23:54:54.672Z,12.41
2022-11-15T23:57:21.416Z,12.46
2022-11-15T23:59:48.287Z,12.46
